Terminal Aerodrome Forecast
Issued by NWS

Home | Current Version | Previous Version | Text Only | Print | Product List | Glossary On
Versions: 1 2 3 4 5 6 7 8 9 10 11 12 13 14 15 16 17
000
FTUS44 KLIX 261238 RRA
TAFMSY
TAF
KMSY 261238Z 2613/2712 16007KT P6SM FEW003 FEW250
     FM270600 19008KT P6SM FEW080
     FM270900 19008KT P6SM SCT030
     FM271000 19008KT P6SM BKN025=

USA.gov is the U.S. government's official web portal to all federal, state and local government web resources and services.